sensor_id;sensor_type;location;lat;lon;timestamp;temperature;humidity
14378;DHT22;7272;53.668;9.578;2023-02-11T00:01:19;7.30;99.90
14378;DHT22;7272;53.668;9.578;2023-02-11T00:04:21;7.30;99.90
14378;DHT22;7272;53.668;9.578;2023-02-11T00:07:25;7.30;99.90
14378;DHT22;7272;53.668;9.578;2023-02-11T00:10:27;7.30;99.90
14378;DHT22;7272;53.668;9.578;2023-02-11T00:13:29;7.40;99.90
14378;DHT22;7272;53.668;9.578;2023-02-11T00:16:31;7.40;99.90
14378;DHT22;7272;53.668;9.578;2023-02-11T00:19:33;7.40;99.90
14378;DHT22;7272;53.668;9.578;2023-02-11T00:22:36;7.40;99.90
14378;DHT22;7272;53.668;9.578;2023-02-11T00:25:39;7.40;99.90
14378;DHT22;7272;53.668;9.578;2023-02-11T00:28:42;7.40;99.90
14378;DHT22;7272;53.668;9.578;2023-02-11T00:31:44;7.40;99.90
14378;DHT22;7272;53.668;9.578;2023-02-11T00:34:46;7.40;99.90
14378;DHT22;7272;53.668;9.578;2023-02-11T00:37:51;7.40;99.90
14378;DHT22;7272;53.668;9.578;2023-02-11T00:40:54;7.40;99.90
14378;DHT22;7272;53.668;9.578;2023-02-11T00:43:56;7.40;99.90
14378;DHT22;7272;53.668;9.578;2023-02-11T00:46:58;7.40;99.90
14378;DHT22;7272;53.668;9.578;2023-02-11T00:50:00;7.40;99.90
14378;DHT22;7272;53.668;9.578;2023-02-11T00:53:05;7.40;99.90
14378;DHT22;7272;53.668;9.578;2023-02-11T00:56:07;7.50;99.90
14378;DHT22;7272;53.668;9.578;2023-02-11T00:59:09;7.50;99.90
14378;DHT22;7272;53.668;9.578;2023-02-11T01:02:11;7.50;99.90
14378;DHT22;7272;53.668;9.578;2023-02-11T01:05:13;7.50;99.90
14378;DHT22;7272;53.668;9.578;2023-02-11T01:08:17;7.50;99.90
14378;DHT22;7272;53.668;9.578;2023-02-11T01:11:19;7.50;99.90
14378;DHT22;7272;53.668;9.578;2023-02-11T01:14:21;7.50;99.90
14378;DHT22;7272;53.668;9.578;2023-02-11T01:17:25;7.50;99.90
14378;DHT22;7272;53.668;9.578;2023-02-11T01:20:27;7.50;99.90
14378;DHT22;7272;53.668;9.578;2023-02-11T01:23:32;7.50;99.90
14378;DHT22;7272;53.668;9.578;2023-02-11T01:26:34;7.50;99.90
14378;DHT22;7272;53.668;9.578;2023-02-11T01:29:36;7.50;99.90
14378;DHT22;7272;53.668;9.578;2023-02-11T01:32:38;7.50;99.90
14378;DHT22;7272;53.668;9.578;2023-02-11T01:35:41;7.50;99.90
14378;DHT22;7272;53.668;9.578;2023-02-11T01:38:44;7.50;99.90
14378;DHT22;7272;53.668;9.578;2023-02-11T01:41:46;7.50;99.90
14378;DHT22;7272;53.668;9.578;2023-02-11T01:44:49;7.50;99.90
14378;DHT22;7272;53.668;9.578;2023-02-11T01:47:51;7.60;99.90
14378;DHT22;7272;53.668;9.578;2023-02-11T01:50:58;7.60;99.90
14378;DHT22;7272;53.668;9.578;2023-02-11T01:54:05;7.60;99.90
14378;DHT22;7272;53.668;9.578;2023-02-11T01:57:28;7.60;99.90
14378;DHT22;7272;53.668;9.578;2023-02-11T02:00:33;7.60;99.90
14378;DHT22;7272;53.668;9.578;2023-02-11T02:03:39;7.70;99.90
14378;DHT22;7272;53.668;9.578;2023-02-11T02:06:46;7.70;99.90
14378;DHT22;7272;53.668;9.578;2023-02-11T02:09:56;7.70;99.90
14378;DHT22;7272;53.668;9.578;2023-02-11T02:12:59;7.70;99.90
14378;DHT22;7272;53.668;9.578;2023-02-11T02:16:03;7.70;99.90
14378;DHT22;7272;53.668;9.578;2023-02-11T02:19:29;7.80;99.90
14378;DHT22;7272;53.668;9.578;2023-02-11T02:22:59;7.80;99.90
14378;DHT22;7272;53.668;9.578;2023-02-11T02:29:54;7.80;99.90
14378;DHT22;7272;53.668;9.578;2023-02-11T02:33:09;7.80;99.90
14378;DHT22;7272;53.668;9.578;2023-02-11T02:36:21;7.80;99.90
14378;DHT22;7272;53.668;9.578;2023-02-11T02:39:27;7.80;99.90
14378;DHT22;7272;53.668;9.578;2023-02-11T02:42:32;7.80;99.90
14378;DHT22;7272;53.668;9.578;2023-02-11T02:45:34;7.90;99.90
14378;DHT22;7272;53.668;9.578;2023-02-11T02:48:37;7.90;99.90
14378;DHT22;7272;53.668;9.578;2023-02-11T02:52:06;7.90;99.90
14378;DHT22;7272;53.668;9.578;2023-02-11T02:55:27;7.90;99.90
14378;DHT22;7272;53.668;9.578;2023-02-11T02:58:55;7.80;99.90
14378;DHT22;7272;53.668;9.578;2023-02-11T03:02:07;7.80;99.90
14378;DHT22;7272;53.668;9.578;2023-02-11T03:05:15;7.80;99.90
14378;DHT22;7272;53.668;9.578;2023-02-11T03:08:24;7.80;99.90
14378;DHT22;7272;53.668;9.578;2023-02-11T03:11:27;7.80;99.90
14378;DHT22;7272;53.668;9.578;2023-02-11T03:14:29;7.80;99.90
14378;DHT22;7272;53.668;9.578;2023-02-11T03:17:33;7.80;99.90
14378;DHT22;7272;53.668;9.578;2023-02-11T03:20:41;7.80;99.90
14378;DHT22;7272;53.668;9.578;2023-02-11T03:23:49;7.80;99.90
14378;DHT22;7272;53.668;9.578;2023-02-11T03:26:56;7.80;99.90
14378;DHT22;7272;53.668;9.578;2023-02-11T03:30:04;7.80;99.90
14378;DHT22;7272;53.668;9.578;2023-02-11T03:33:11;7.80;99.90
14378;DHT22;7272;53.668;9.578;2023-02-11T03:36:21;7.80;99.90
14378;DHT22;7272;53.668;9.578;2023-02-11T03:39:28;7.80;99.90
14378;DHT22;7272;53.668;9.578;2023-02-11T03:42:34;7.90;99.90
14378;DHT22;7272;53.668;9.578;2023-02-11T03:45:38;7.90;99.90
14378;DHT22;7272;53.668;9.578;2023-02-11T03:48:43;7.90;99.90
14378;DHT22;7272;53.668;9.578;2023-02-11T03:51:51;7.90;99.90
14378;DHT22;7272;53.668;9.578;2023-02-11T03:54:56;7.90;99.90
14378;DHT22;7272;53.668;9.578;2023-02-11T03:57:59;7.90;99.90
14378;DHT22;7272;53.668;9.578;2023-02-11T04:01:01;7.90;99.90
14378;DHT22;7272;53.668;9.578;2023-02-11T04:04:04;7.90;99.90
14378;DHT22;7272;53.668;9.578;2023-02-11T04:07:08;7.90;99.90
14378;DHT22;7272;53.668;9.578;2023-02-11T04:10:12;7.90;99.90
14378;DHT22;7272;53.668;9.578;2023-02-11T04:13:14;7.90;99.90
14378;DHT22;7272;53.668;9.578;2023-02-11T04:16:16;7.90;99.90
14378;DHT22;7272;53.668;9.578;2023-02-11T04:19:18;7.90;99.90
14378;DHT22;7272;53.668;9.578;2023-02-11T04:22:21;8.00;99.90
14378;DHT22;7272;53.668;9.578;2023-02-11T04:25:23;8.00;99.90
14378;DHT22;7272;53.668;9.578;2023-02-11T04:28:25;8.00;99.90
14378;DHT22;7272;53.668;9.578;2023-02-11T04:31:29;8.10;99.90
14378;DHT22;7272;53.668;9.578;2023-02-11T04:34:31;8.10;99.90
14378;DHT22;7272;53.668;9.578;2023-02-11T04:37:34;8.10;99.90
14378;DHT22;7272;53.668;9.578;2023-02-11T04:40:36;8.10;99.90
14378;DHT22;7272;53.668;9.578;2023-02-11T04:43:38;8.10;99.90
14378;DHT22;7272;53.668;9.578;2023-02-11T04:46:40;8.10;99.90
14378;DHT22;7272;53.668;9.578;2023-02-11T04:49:42;8.10;99.90
14378;DHT22;7272;53.668;9.578;2023-02-11T04:52:45;8.10;99.90
14378;DHT22;7272;53.668;9.578;2023-02-11T04:55:48;8.10;99.90
14378;DHT22;7272;53.668;9.578;2023-02-11T04:58:51;8.00;99.90
14378;DHT22;7272;53.668;9.578;2023-02-11T05:01:53;8.00;99.90
14378;DHT22;7272;53.668;9.578;2023-02-11T05:04:55;8.00;99.90
14378;DHT22;7272;53.668;9.578;2023-02-11T05:07:58;8.00;99.90
14378;DHT22;7272;53.668;9.578;2023-02-11T05:11:00;8.00;99.90
14378;DHT22;7272;53.668;9.578;2023-02-11T05:14:02;8.00;99.90
14378;DHT22;7272;53.668;9.578;2023-02-11T05:17:04;8.00;99.90
14378;DHT22;7272;53.668;9.578;2023-02-11T05:20:08;8.00;99.90
14378;DHT22;7272;53.668;9.578;2023-02-11T05:23:11;8.00;99.90
14378;DHT22;7272;53.668;9.578;2023-02-11T05:26:13;8.00;99.90
14378;DHT22;7272;53.668;9.578;2023-02-11T05:29:15;8.00;99.90
14378;DHT22;7272;53.668;9.578;2023-02-11T05:32:18;8.00;99.90
14378;DHT22;7272;53.668;9.578;2023-02-11T05:35:20;8.00;99.90
14378;DHT22;7272;53.668;9.578;2023-02-11T05:38:23;8.00;99.90
14378;DHT22;7272;53.668;9.578;2023-02-11T05:41:25;8.00;99.90
14378;DHT22;7272;53.668;9.578;2023-02-11T05:44:27;8.00;99.90
14378;DHT22;7272;53.668;9.578;2023-02-11T05:47:29;8.10;99.90
14378;DHT22;7272;53.668;9.578;2023-02-11T05:50:31;8.10;99.90
14378;DHT22;7272;53.668;9.578;2023-02-11T05:53:34;8.10;99.90
14378;DHT22;7272;53.668;9.578;2023-02-11T05:56:36;8.10;99.90
14378;DHT22;7272;53.668;9.578;2023-02-11T05:59:39;8.10;99.90
14378;DHT22;7272;53.668;9.578;2023-02-11T06:02:41;8.10;99.90
14378;DHT22;7272;53.668;9.578;2023-02-11T06:05:43;8.10;99.90
14378;DHT22;7272;53.668;9.578;2023-02-11T06:08:47;8.10;99.90
14378;DHT22;7272;53.668;9.578;2023-02-11T06:11:49;8.10;99.90
14378;DHT22;7272;53.668;9.578;2023-02-11T06:14:51;8.10;99.90
14378;DHT22;7272;53.668;9.578;2023-02-11T06:17:53;8.10;99.90
14378;DHT22;7272;53.668;9.578;2023-02-11T06:20:55;8.10;99.90
14378;DHT22;7272;53.668;9.578;2023-02-11T06:23:58;8.10;99.90
14378;DHT22;7272;53.668;9.578;2023-02-11T06:27:00;8.10;99.90
14378;DHT22;7272;53.668;9.578;2023-02-11T06:30:04;8.10;99.90
14378;DHT22;7272;53.668;9.578;2023-02-11T06:33:06;8.10;99.90
14378;DHT22;7272;53.668;9.578;2023-02-11T06:36:14;8.10;99.90
14378;DHT22;7272;53.668;9.578;2023-02-11T06:39:18;8.10;99.90
14378;DHT22;7272;53.668;9.578;2023-02-11T06:42:19;8.10;99.90
14378;DHT22;7272;53.668;9.578;2023-02-11T06:45:21;8.10;99.90
14378;DHT22;7272;53.668;9.578;2023-02-11T06:48:23;8.10;99.90
14378;DHT22;7272;53.668;9.578;2023-02-11T06:51:26;8.10;99.90
14378;DHT22;7272;53.668;9.578;2023-02-11T06:54:29;8.10;99.90
14378;DHT22;7272;53.668;9.578;2023-02-11T06:57:31;8.10;99.90
14378;DHT22;7272;53.668;9.578;2023-02-11T07:00:33;8.10;99.90
14378;DHT22;7272;53.668;9.578;2023-02-11T07:03:36;8.20;99.90
14378;DHT22;7272;53.668;9.578;2023-02-11T07:06:38;8.20;99.90
14378;DHT22;7272;53.668;9.578;2023-02-11T07:09:41;8.20;99.90
14378;DHT22;7272;53.668;9.578;2023-02-11T07:12:44;8.20;99.90
14378;DHT22;7272;53.668;9.578;2023-02-11T07:15:45;8.20;99.90
14378;DHT22;7272;53.668;9.578;2023-02-11T07:18:48;8.30;99.90
14378;DHT22;7272;53.668;9.578;2023-02-11T07:21:50;8.30;99.90
14378;DHT22;7272;53.668;9.578;2023-02-11T07:24:56;8.30;99.90
14378;DHT22;7272;53.668;9.578;2023-02-11T07:27:58;8.40;99.90
14378;DHT22;7272;53.668;9.578;2023-02-11T07:31:05;8.40;99.90
14378;DHT22;7272;53.668;9.578;2023-02-11T07:34:09;8.40;99.90
14378;DHT22;7272;53.668;9.578;2023-02-11T07:37:11;8.40;99.90
14378;DHT22;7272;53.668;9.578;2023-02-11T07:40:15;8.40;99.90
14378;DHT22;7272;53.668;9.578;2023-02-11T07:43:17;8.40;99.90
14378;DHT22;7272;53.668;9.578;2023-02-11T07:46:20;8.40;99.90
14378;DHT22;7272;53.668;9.578;2023-02-11T07:49:22;8.40;99.90
14378;DHT22;7272;53.668;9.578;2023-02-11T07:52:24;8.40;99.90
14378;DHT22;7272;53.668;9.578;2023-02-11T07:55:28;8.50;99.90
14378;DHT22;7272;53.668;9.578;2023-02-11T07:58:30;8.50;99.90
14378;DHT22;7272;53.668;9.578;2023-02-11T08:01:32;8.50;99.90
14378;DHT22;7272;53.668;9.578;2023-02-11T08:04:34;8.50;99.90
14378;DHT22;7272;53.668;9.578;2023-02-11T08:07:36;8.50;99.90
14378;DHT22;7272;53.668;9.578;2023-02-11T08:10:39;8.60;99.90
14378;DHT22;7272;53.668;9.578;2023-02-11T08:13:42;8.60;99.90
14378;DHT22;7272;53.668;9.578;2023-02-11T08:16:44;8.60;99.90
14378;DHT22;7272;53.668;9.578;2023-02-11T08:19:46;8.60;99.90
14378;DHT22;7272;53.668;9.578;2023-02-11T08:22:47;8.60;99.90
14378;DHT22;7272;53.668;9.578;2023-02-11T08:25:51;8.60;99.90
14378;DHT22;7272;53.668;9.578;2023-02-11T08:28:54;8.60;99.90
14378;DHT22;7272;53.668;9.578;2023-02-11T08:31:56;8.60;99.90
14378;DHT22;7272;53.668;9.578;2023-02-11T08:34:58;8.60;99.90
14378;DHT22;7272;53.668;9.578;2023-02-11T08:38:00;8.60;99.90
14378;DHT22;7272;53.668;9.578;2023-02-11T08:41:04;8.60;99.90
14378;DHT22;7272;53.668;9.578;2023-02-11T08:44:06;8.60;99.90
14378;DHT22;7272;53.668;9.578;2023-02-11T08:47:08;8.60;99.90
14378;DHT22;7272;53.668;9.578;2023-02-11T08:50:10;8.60;99.90
14378;DHT22;7272;53.668;9.578;2023-02-11T08:53:12;8.70;99.90
14378;DHT22;7272;53.668;9.578;2023-02-11T08:56:16;8.70;99.90
14378;DHT22;7272;53.668;9.578;2023-02-11T08:59:18;8.70;99.90
14378;DHT22;7272;53.668;9.578;2023-02-11T09:02:20;8.70;99.90
14378;DHT22;7272;53.668;9.578;2023-02-11T09:05:22;8.70;99.90
14378;DHT22;7272;53.668;9.578;2023-02-11T09:08:24;8.70;99.90
14378;DHT22;7272;53.668;9.578;2023-02-11T09:11:29;8.80;99.90
14378;DHT22;7272;53.668;9.578;2023-02-11T09:14:32;8.80;99.90
14378;DHT22;7272;53.668;9.578;2023-02-11T09:17:33;8.80;99.90
14378;DHT22;7272;53.668;9.578;2023-02-11T09:20:35;8.80;99.90
14378;DHT22;7272;53.668;9.578;2023-02-11T09:23:37;8.80;99.90
14378;DHT22;7272;53.668;9.578;2023-02-11T09:26:42;8.90;99.90
14378;DHT22;7272;53.668;9.578;2023-02-11T09:29:44;8.90;99.90
14378;DHT22;7272;53.668;9.578;2023-02-11T09:32:46;8.90;99.90
14378;DHT22;7272;53.668;9.578;2023-02-11T09:35:48;9.00;99.90
14378;DHT22;7272;53.668;9.578;2023-02-11T09:38:51;9.00;99.90
14378;DHT22;7272;53.668;9.578;2023-02-11T09:42:04;9.00;99.90
14378;DHT22;7272;53.668;9.578;2023-02-11T09:45:14;9.10;99.90
14378;DHT22;7272;53.668;9.578;2023-02-11T09:48:19;9.10;99.90
14378;DHT22;7272;53.668;9.578;2023-02-11T09:51:28;9.20;99.90
14378;DHT22;7272;53.668;9.578;2023-02-11T09:54:36;9.20;99.90
14378;DHT22;7272;53.668;9.578;2023-02-11T09:57:41;9.30;99.90
14378;DHT22;7272;53.668;9.578;2023-02-11T10:00:47;9.30;99.90
14378;DHT22;7272;53.668;9.578;2023-02-11T10:03:59;9.30;99.90
14378;DHT22;7272;53.668;9.578;2023-02-11T10:07:08;9.30;99.90
14378;DHT22;7272;53.668;9.578;2023-02-11T10:10:18;9.30;99.90
14378;DHT22;7272;53.668;9.578;2023-02-11T10:13:42;9.20;99.90
14378;DHT22;7272;53.668;9.578;2023-02-11T10:16:57;9.20;99.90
14378;DHT22;7272;53.668;9.578;2023-02-11T10:20:19;9.20;99.90
14378;DHT22;7272;53.668;9.578;2023-02-11T10:23:24;9.30;99.90
14378;DHT22;7272;53.668;9.578;2023-02-11T10:26:29;9.30;99.90
14378;DHT22;7272;53.668;9.578;2023-02-11T10:29:37;9.40;99.90
14378;DHT22;7272;53.668;9.578;2023-02-11T10:32:43;9.40;99.90
14378;DHT22;7272;53.668;9.578;2023-02-11T10:35:47;9.40;99.90
14378;DHT22;7272;53.668;9.578;2023-02-11T10:38:49;9.30;99.90
14378;DHT22;7272;53.668;9.578;2023-02-11T10:41:54;9.30;99.90
14378;DHT22;7272;53.668;9.578;2023-02-11T10:45:00;9.40;99.90
14378;DHT22;7272;53.668;9.578;2023-02-11T10:48:05;9.50;99.90
14378;DHT22;7272;53.668;9.578;2023-02-11T10:51:29;9.60;99.90
14378;DHT22;7272;53.668;9.578;2023-02-11T10:54:31;9.60;99.90
14378;DHT22;7272;53.668;9.578;2023-02-11T10:57:37;9.60;99.90
14378;DHT22;7272;53.668;9.578;2023-02-11T11:00:50;9.60;99.90
14378;DHT22;7272;53.668;9.578;2023-02-11T11:03:53;9.50;99.90
14378;DHT22;7272;53.668;9.578;2023-02-11T11:07:08;9.50;99.90
14378;DHT22;7272;53.668;9.578;2023-02-11T11:10:26;9.50;99.90
14378;DHT22;7272;53.668;9.578;2023-02-11T11:13:30;9.40;99.90
14378;DHT22;7272;53.668;9.578;2023-02-11T11:16:33;9.40;99.90
14378;DHT22;7272;53.668;9.578;2023-02-11T11:19:35;9.40;99.90
14378;DHT22;7272;53.668;9.578;2023-02-11T11:22:40;9.50;99.90
14378;DHT22;7272;53.668;9.578;2023-02-11T11:25:44;9.50;99.90
14378;DHT22;7272;53.668;9.578;2023-02-11T11:28:53;9.50;99.90
14378;DHT22;7272;53.668;9.578;2023-02-11T11:31:57;9.50;99.90
14378;DHT22;7272;53.668;9.578;2023-02-11T11:35:03;9.50;99.90
14378;DHT22;7272;53.668;9.578;2023-02-11T11:38:12;9.50;99.90
14378;DHT22;7272;53.668;9.578;2023-02-11T11:41:18;9.50;99.90
14378;DHT22;7272;53.668;9.578;2023-02-11T11:44:25;9.60;99.90
14378;DHT22;7272;53.668;9.578;2023-02-11T11:47:39;9.60;99.90
14378;DHT22;7272;53.668;9.578;2023-02-11T11:50:46;9.60;99.90
14378;DHT22;7272;53.668;9.578;2023-02-11T11:53:56;9.60;99.90
14378;DHT22;7272;53.668;9.578;2023-02-11T11:57:04;9.70;99.90
14378;DHT22;7272;53.668;9.578;2023-02-11T12:00:19;9.60;99.90
14378;DHT22;7272;53.668;9.578;2023-02-11T12:07:07;9.60;99.90
14378;DHT22;7272;53.668;9.578;2023-02-11T12:14:02;9.60;99.90
14378;DHT22;7272;53.668;9.578;2023-02-11T12:17:13;9.60;99.90
14378;DHT22;7272;53.668;9.578;2023-02-11T12:20:24;9.60;99.90
14378;DHT22;7272;53.668;9.578;2023-02-11T12:23:41;9.70;99.90
14378;DHT22;7272;53.668;9.578;2023-02-11T12:26:50;9.60;99.90
14378;DHT22;7272;53.668;9.578;2023-02-11T12:30:03;9.60;99.90
14378;DHT22;7272;53.668;9.578;2023-02-11T12:33:15;9.60;99.90
14378;DHT22;7272;53.668;9.578;2023-02-11T12:36:30;9.60;99.90
14378;DHT22;7272;53.668;9.578;2023-02-11T12:39:41;9.50;99.90
14378;DHT22;7272;53.668;9.578;2023-02-11T12:43:00;9.50;99.90
14378;DHT22;7272;53.668;9.578;2023-02-11T12:46:37;9.60;99.90
14378;DHT22;7272;53.668;9.578;2023-02-11T12:49:52;9.60;99.90
14378;DHT22;7272;53.668;9.578;2023-02-11T12:53:16;9.60;99.90
14378;DHT22;7272;53.668;9.578;2023-02-11T12:56:25;9.60;99.90
14378;DHT22;7272;53.668;9.578;2023-02-11T12:59:40;9.70;99.90
14378;DHT22;7272;53.668;9.578;2023-02-11T13:02:53;9.70;99.90
14378;DHT22;7272;53.668;9.578;2023-02-11T13:05:58;9.80;99.90
14378;DHT22;7272;53.668;9.578;2023-02-11T13:09:05;9.80;99.90
14378;DHT22;7272;53.668;9.578;2023-02-11T13:12:11;9.80;99.90
14378;DHT22;7272;53.668;9.578;2023-02-11T13:15:32;9.90;99.90
14378;DHT22;7272;53.668;9.578;2023-02-11T13:18:48;9.90;99.90
14378;DHT22;7272;53.668;9.578;2023-02-11T13:22:04;10.00;99.90
14378;DHT22;7272;53.668;9.578;2023-02-11T13:25:18;10.00;99.90
14378;DHT22;7272;53.668;9.578;2023-02-11T13:28:29;10.00;99.90
14378;DHT22;7272;53.668;9.578;2023-02-11T13:31:34;9.90;99.90
14378;DHT22;7272;53.668;9.578;2023-02-11T13:34:55;9.90;99.90
14378;DHT22;7272;53.668;9.578;2023-02-11T13:37:58;9.90;99.90
14378;DHT22;7272;53.668;9.578;2023-02-11T13:41:03;9.90;99.90
14378;DHT22;7272;53.668;9.578;2023-02-11T13:44:19;9.90;99.90
14378;DHT22;7272;53.668;9.578;2023-02-11T13:47:28;9.80;99.90
14378;DHT22;7272;53.668;9.578;2023-02-11T13:50:37;9.80;99.90
14378;DHT22;7272;53.668;9.578;2023-02-11T13:53:50;9.80;99.90
14378;DHT22;7272;53.668;9.578;2023-02-11T13:57:26;9.80;99.90
14378;DHT22;7272;53.668;9.578;2023-02-11T14:00:48;9.80;99.90
14378;DHT22;7272;53.668;9.578;2023-02-11T14:04:19;9.90;99.90
14378;DHT22;7272;53.668;9.578;2023-02-11T14:08:10;9.90;99.90
14378;DHT22;7272;53.668;9.578;2023-02-11T14:11:47;9.90;99.90
14378;DHT22;7272;53.668;9.578;2023-02-11T14:15:14;10.00;99.90
14378;DHT22;7272;53.668;9.578;2023-02-11T14:22:01;9.90;99.90
14378;DHT22;7272;53.668;9.578;2023-02-11T14:25:15;9.80;99.90
14378;DHT22;7272;53.668;9.578;2023-02-11T14:28:23;9.80;99.90
14378;DHT22;7272;53.668;9.578;2023-02-11T14:31:37;9.70;99.90
14378;DHT22;7272;53.668;9.578;2023-02-11T14:34:50;9.60;99.90
14378;DHT22;7272;53.668;9.578;2023-02-11T14:37:59;9.60;99.90
14378;DHT22;7272;53.668;9.578;2023-02-11T14:41:09;9.50;99.90
14378;DHT22;7272;53.668;9.578;2023-02-11T14:44:18;9.40;99.90
14378;DHT22;7272;53.668;9.578;2023-02-11T14:48:01;9.20;99.90
14378;DHT22;7272;53.668;9.578;2023-02-11T14:51:07;9.10;99.90
14378;DHT22;7272;53.668;9.578;2023-02-11T14:54:13;9.00;99.90
14378;DHT22;7272;53.668;9.578;2023-02-11T14:57:19;9.00;99.90
14378;DHT22;7272;53.668;9.578;2023-02-11T15:00:21;9.00;99.90
14378;DHT22;7272;53.668;9.578;2023-02-11T15:03:30;9.00;99.90
14378;DHT22;7272;53.668;9.578;2023-02-11T15:06:36;9.00;99.90
14378;DHT22;7272;53.668;9.578;2023-02-11T15:09:40;9.00;99.90
14378;DHT22;7272;53.668;9.578;2023-02-11T15:12:45;9.00;99.90
14378;DHT22;7272;53.668;9.578;2023-02-11T15:15:52;8.90;99.90
14378;DHT22;7272;53.668;9.578;2023-02-11T15:18:59;8.90;99.90
14378;DHT22;7272;53.668;9.578;2023-02-11T15:22:03;8.90;99.90
14378;DHT22;7272;53.668;9.578;2023-02-11T15:25:09;8.90;99.90
14378;DHT22;7272;53.668;9.578;2023-02-11T15:28:21;8.90;99.90
14378;DHT22;7272;53.668;9.578;2023-02-11T15:31:25;8.90;99.90
14378;DHT22;7272;53.668;9.578;2023-02-11T15:34:27;8.90;99.90
14378;DHT22;7272;53.668;9.578;2023-02-11T15:37:29;8.90;99.90
14378;DHT22;7272;53.668;9.578;2023-02-11T15:40:33;8.80;99.90
14378;DHT22;7272;53.668;9.578;2023-02-11T15:43:42;8.80;99.90
14378;DHT22;7272;53.668;9.578;2023-02-11T15:46:44;8.80;99.90
14378;DHT22;7272;53.668;9.578;2023-02-11T15:49:47;8.80;99.90
14378;DHT22;7272;53.668;9.578;2023-02-11T15:52:49;8.80;99.90
14378;DHT22;7272;53.668;9.578;2023-02-11T15:55:59;8.80;99.90
14378;DHT22;7272;53.668;9.578;2023-02-11T15:59:13;8.80;99.90
14378;DHT22;7272;53.668;9.578;2023-02-11T16:02:19;8.80;99.90
14378;DHT22;7272;53.668;9.578;2023-02-11T16:05:28;8.80;99.90
14378;DHT22;7272;53.668;9.578;2023-02-11T16:08:30;8.90;99.90
14378;DHT22;7272;53.668;9.578;2023-02-11T16:11:33;8.80;99.90
14378;DHT22;7272;53.668;9.578;2023-02-11T16:14:37;8.80;99.90
14378;DHT22;7272;53.668;9.578;2023-02-11T16:17:40;8.90;99.90
14378;DHT22;7272;53.668;9.578;2023-02-11T16:20:46;8.90;99.90
14378;DHT22;7272;53.668;9.578;2023-02-11T16:23:50;8.90;99.90
14378;DHT22;7272;53.668;9.578;2023-02-11T16:26:54;8.90;99.90
14378;DHT22;7272;53.668;9.578;2023-02-11T16:29:58;8.90;99.90
14378;DHT22;7272;53.668;9.578;2023-02-11T16:33:00;8.90;99.90
14378;DHT22;7272;53.668;9.578;2023-02-11T16:36:09;8.90;99.90
14378;DHT22;7272;53.668;9.578;2023-02-11T16:39:12;8.90;99.90
14378;DHT22;7272;53.668;9.578;2023-02-11T16:42:15;8.90;99.90
14378;DHT22;7272;53.668;9.578;2023-02-11T16:45:18;8.90;99.90
14378;DHT22;7272;53.668;9.578;2023-02-11T16:48:20;8.90;99.90
14378;DHT22;7272;53.668;9.578;2023-02-11T16:51:22;8.90;99.90
14378;DHT22;7272;53.668;9.578;2023-02-11T16:54:24;8.80;99.90
14378;DHT22;7272;53.668;9.578;2023-02-11T16:57:29;8.80;99.90
14378;DHT22;7272;53.668;9.578;2023-02-11T17:00:34;8.80;99.90
14378;DHT22;7272;53.668;9.578;2023-02-11T17:03:38;8.70;99.90
14378;DHT22;7272;53.668;9.578;2023-02-11T17:06:41;8.70;99.90
14378;DHT22;7272;53.668;9.578;2023-02-11T17:09:43;8.70;99.90
14378;DHT22;7272;53.668;9.578;2023-02-11T17:12:45;8.60;99.90
14378;DHT22;7272;53.668;9.578;2023-02-11T17:15:49;8.60;99.90
14378;DHT22;7272;53.668;9.578;2023-02-11T17:18:51;8.60;99.90
14378;DHT22;7272;53.668;9.578;2023-02-11T17:21:54;8.60;99.90
14378;DHT22;7272;53.668;9.578;2023-02-11T17:24:56;8.60;99.90
14378;DHT22;7272;53.668;9.578;2023-02-11T17:27:59;8.60;99.90
14378;DHT22;7272;53.668;9.578;2023-02-11T17:31:06;8.70;99.90
14378;DHT22;7272;53.668;9.578;2023-02-11T17:34:08;8.70;99.90
14378;DHT22;7272;53.668;9.578;2023-02-11T17:37:10;8.70;99.90
14378;DHT22;7272;53.668;9.578;2023-02-11T17:40:13;8.70;99.90
14378;DHT22;7272;53.668;9.578;2023-02-11T17:43:15;8.70;99.90
14378;DHT22;7272;53.668;9.578;2023-02-11T17:46:19;8.70;99.90
14378;DHT22;7272;53.668;9.578;2023-02-11T17:49:21;8.70;99.90
14378;DHT22;7272;53.668;9.578;2023-02-11T17:52:23;8.80;99.90
14378;DHT22;7272;53.668;9.578;2023-02-11T17:55:27;8.80;99.90
14378;DHT22;7272;53.668;9.578;2023-02-11T17:58:29;8.80;99.90
14378;DHT22;7272;53.668;9.578;2023-02-11T18:01:34;8.80;99.90
14378;DHT22;7272;53.668;9.578;2023-02-11T18:04:36;8.70;99.90
14378;DHT22;7272;53.668;9.578;2023-02-11T18:07:38;8.70;99.90
14378;DHT22;7272;53.668;9.578;2023-02-11T18:10:41;8.80;99.90
14378;DHT22;7272;53.668;9.578;2023-02-11T18:13:43;8.70;99.90
14378;DHT22;7272;53.668;9.578;2023-02-11T18:16:52;8.80;99.90
14378;DHT22;7272;53.668;9.578;2023-02-11T18:19:54;8.70;99.90
14378;DHT22;7272;53.668;9.578;2023-02-11T18:22:57;8.80;99.90
14378;DHT22;7272;53.668;9.578;2023-02-11T18:25:58;8.80;99.90
14378;DHT22;7272;53.668;9.578;2023-02-11T18:29:05;8.90;99.90
14378;DHT22;7272;53.668;9.578;2023-02-11T18:32:09;8.80;99.90
14378;DHT22;7272;53.668;9.578;2023-02-11T18:35:11;8.80;99.90
14378;DHT22;7272;53.668;9.578;2023-02-11T18:38:14;8.80;99.90
14378;DHT22;7272;53.668;9.578;2023-02-11T18:41:16;8.70;99.90
14378;DHT22;7272;53.668;9.578;2023-02-11T18:44:19;8.70;99.90
14378;DHT22;7272;53.668;9.578;2023-02-11T18:47:26;8.70;99.90
14378;DHT22;7272;53.668;9.578;2023-02-11T18:50:28;8.70;99.90
14378;DHT22;7272;53.668;9.578;2023-02-11T18:53:31;8.70;99.90
14378;DHT22;7272;53.668;9.578;2023-02-11T18:56:33;8.70;99.90
14378;DHT22;7272;53.668;9.578;2023-02-11T18:59:35;8.70;99.90
14378;DHT22;7272;53.668;9.578;2023-02-11T19:02:39;8.80;99.90
14378;DHT22;7272;53.668;9.578;2023-02-11T19:05:42;8.80;99.90
14378;DHT22;7272;53.668;9.578;2023-02-11T19:08:45;8.80;99.90
14378;DHT22;7272;53.668;9.578;2023-02-11T19:12:01;8.80;99.90
14378;DHT22;7272;53.668;9.578;2023-02-11T19:15:05;8.80;99.90
14378;DHT22;7272;53.668;9.578;2023-02-11T19:18:07;8.80;99.90
14378;DHT22;7272;53.668;9.578;2023-02-11T19:21:10;8.80;99.90
14378;DHT22;7272;53.668;9.578;2023-02-11T19:24:14;8.80;99.90
14378;DHT22;7272;53.668;9.578;2023-02-11T19:27:19;8.80;99.90
14378;DHT22;7272;53.668;9.578;2023-02-11T19:30:21;8.70;99.90
14378;DHT22;7272;53.668;9.578;2023-02-11T19:33:23;8.80;99.90
14378;DHT22;7272;53.668;9.578;2023-02-11T19:36:25;8.80;99.90
14378;DHT22;7272;53.668;9.578;2023-02-11T19:39:27;8.80;99.90
14378;DHT22;7272;53.668;9.578;2023-02-11T19:42:30;8.80;99.90
14378;DHT22;7272;53.668;9.578;2023-02-11T19:45:32;8.80;99.90
14378;DHT22;7272;53.668;9.578;2023-02-11T19:48:37;8.80;99.90
14378;DHT22;7272;53.668;9.578;2023-02-11T19:51:39;8.80;99.90
14378;DHT22;7272;53.668;9.578;2023-02-11T19:54:41;8.90;99.90
14378;DHT22;7272;53.668;9.578;2023-02-11T19:57:44;8.90;99.90
14378;DHT22;7272;53.668;9.578;2023-02-11T20:00:46;8.90;99.90
14378;DHT22;7272;53.668;9.578;2023-02-11T20:03:48;8.90;99.90
14378;DHT22;7272;53.668;9.578;2023-02-11T20:06:51;8.80;99.90
14378;DHT22;7272;53.668;9.578;2023-02-11T20:09:52;8.80;99.90
14378;DHT22;7272;53.668;9.578;2023-02-11T20:12:56;8.80;99.90
14378;DHT22;7272;53.668;9.578;2023-02-11T20:16:03;8.80;99.90
14378;DHT22;7272;53.668;9.578;2023-02-11T20:19:05;8.80;99.90
14378;DHT22;7272;53.668;9.578;2023-02-11T20:22:07;8.80;99.90
14378;DHT22;7272;53.668;9.578;2023-02-11T20:25:09;8.80;99.90
14378;DHT22;7272;53.668;9.578;2023-02-11T20:28:12;8.70;99.90